Time;durP1;ratioP1;P1;durP2;ratioP2;P2;SDS_P1;SDS_P2;PMS_P1;PMS_P2;Temp;Humidity;BMP_temperature;BMP_pressure;BME280_temperature;BME280_humidity;BME280_pressure;Samples;Min_cycle;Max_cycle;Signal;HPM_P1;HPM_P2
2021/08/27 00:02:30;;;;;;;11.35;10.15;;;;;;;23.93;100.00;100464.97;4880802;29;20069;-66
2021/08/27 00:05:15;;;;;;;11.05;9.63;;;;;;;23.60;100.00;100475.50;4881111;29;20049;-65
2021/08/27 00:08:01;;;;;;;11.88;10.25;;;;;;;23.92;100.00;100471.28;4880819;29;20036;-65
2021/08/27 00:10:47;;;;;;;12.05;10.02;;;;;;;23.41;100.00;100478.69;4881086;29;20104;-65
2021/08/27 00:13:33;;;;;;;12.73;10.15;;;;;;;23.55;100.00;100477.69;4880726;29;20036;-65
2021/08/27 00:16:19;;;;;;;14.40;10.95;;;;;;;23.52;100.00;100474.25;4880958;29;20104;-66
2021/08/27 00:19:05;;;;;;;15.95;11.50;;;;;;;22.95;100.00;100477.66;4881009;29;20447;-66
2021/08/27 00:21:51;;;;;;;13.30;11.15;;;;;;;22.90;100.00;100485.97;4880930;29;20424;-65
2021/08/27 00:24:36;;;;;;;15.23;11.45;;;;;;;;;;4880499;29;20527;-65
2021/08/27 00:27:22;;;;;;;13.18;10.88;;;;;;;23.09;100.00;100480.16;4867112;29;20033;-66
2021/08/27 00:30:09;;;;;;;13.52;11.13;;;;;;;23.20;100.00;100472.25;4880743;29;20044;-65
2021/08/27 00:32:54;;;;;;;13.45;10.88;;;;;;;22.80;100.00;100468.06;4880137;29;20036;-66
2021/08/27 00:35:40;;;;;;;11.80;10.18;;;;;;;23.15;100.00;100464.53;4880979;29;20371;-65
2021/08/27 00:38:26;;;;;;;12.27;10.20;;;;;;;23.19;100.00;100463.34;4879880;29;20106;-66
2021/08/27 00:41:12;;;;;;;12.05;10.32;;;;;;;23.12;100.00;100464.75;4880162;29;20032;-66
2021/08/27 00:43:58;;;;;;;12.68;10.52;;;;;;;23.02;100.00;100462.84;4879856;29;20089;-66
2021/08/27 00:46:44;;;;;;;12.77;10.40;;;;;;;23.24;100.00;100455.84;4879930;29;20355;-66
2021/08/27 00:49:31;;;;;;;12.50;10.95;;;;;;;23.11;100.00;100455.03;4879881;29;20064;-66
2021/08/27 00:52:16;;;;;;;13.93;11.52;;;;;;;23.12;100.00;100453.22;4880342;29;20359;-67
2021/08/27 00:55:03;;;;;;;12.30;10.90;;;;;;;22.77;100.00;100447.75;4879978;29;20025;-66
2021/08/27 00:57:49;;;;;;;11.80;10.57;;;;;;;22.92;100.00;100449.34;4883748;29;20033;-66
2021/08/27 01:00:34;;;;;;;13.15;10.90;;;;;;;22.80;100.00;100449.34;4884144;29;20122;-66
2021/08/27 01:03:20;;;;;;;13.48;10.48;;;;;;;23.06;100.00;100450.97;4883718;29;20025;-65
2021/08/27 01:06:10;;;;;;;17.10;11.10;;;;;;;22.97;100.00;100449.84;4884184;29;20473;-65
2021/08/27 01:09:02;;;;;;;14.57;11.60;;;;;;;22.93;100.00;100435.00;4883250;29;20029;-66
2021/08/27 01:12:02;;;;;;;17.83;11.80;;;;;;;22.94;100.00;100428.69;4883514;29;20033;-65
2021/08/27 01:15:01;;;;;;;15.80;11.43;;;;;;;22.65;100.00;100437.09;4883121;29;20089;-66
2021/08/27 01:17:55;;;;;;;16.15;11.57;;;;;;;22.92;100.00;100440.44;4883251;29;20056;-65
2021/08/27 01:21:18;;;;;;;16.35;12.00;;;;;;;22.85;100.00;100439.19;4883090;29;20124;-66
2021/08/27 01:24:06;;;;;;;17.42;11.52;;;;;;;22.82;100.00;100429.56;4873718;29;20132;-66
2021/08/27 01:26:55;;;;;;;17.23;12.73;;;;;;;22.82;100.00;100434.03;4883471;29;20378;-66
2021/08/27 01:30:00;;;;;;;16.35;12.55;;;;;;;22.92;100.00;100430.63;4884289;29;20099;-65
2021/08/27 01:33:11;;;;;;;16.13;12.65;;;;;;;22.62;100.00;100429.28;4883392;29;20037;-65
2021/08/27 01:36:01;;;;;;;15.65;12.02;;;;;;;22.96;100.00;100425.91;4883906;29;20093;-66
2021/08/27 01:38:47;;;;;;;17.30;12.80;;;;;;;22.99;100.00;100420.34;4883312;29;20451;-65
2021/08/27 01:41:38;;;;;;;16.65;12.50;;;;;;;22.89;100.00;100424.63;4883636;29;20037;-65
2021/08/27 01:44:28;;;;;;;15.20;13.38;;;;;;;23.07;100.00;100424.13;4883000;29;20073;-65
2021/08/27 01:47:20;;;;;;;20.15;14.30;;;;;;;22.86;100.00;100428.38;4883306;29;20442;-66
2021/08/27 01:50:08;;;;;;;19.50;13.90;;;;;;;22.85;100.00;100433.84;4883418;29;20029;-65
2021/08/27 01:52:54;;;;;;;17.70;13.90;;;;;;;22.77;100.00;100436.19;4884172;29;20116;-65
2021/08/27 01:55:40;;;;;;;16.63;13.35;;;;;;;22.72;100.00;100430.34;4883074;29;20037;-66
2021/08/27 01:58:28;;;;;;;18.33;13.98;;;;;;;22.76;100.00;100440.72;4883372;29;20458;-65
2021/08/27 02:01:14;;;;;;;16.20;13.30;;;;;;;22.87;100.00;100432.75;4883048;29;20035;-65
2021/08/27 02:04:10;;;;;;;16.13;12.40;;;;;;;22.83;100.00;100430.44;4883449;29;20139;-65
2021/08/27 02:06:57;;;;;;;20.60;14.80;;;;;;;22.43;100.00;100424.38;4881943;29;20045;-66
2021/08/27 02:09:44;;;;;;;17.98;14.18;;;;;;;22.53;100.00;100425.47;4883141;29;20420;-66
2021/08/27 02:12:30;;;;;;;17.65;14.18;;;;;;;22.54;100.00;100421.81;4882844;29;20025;-66
2021/08/27 02:15:20;;;;;;;18.45;14.30;;;;;;;22.37;100.00;100415.94;4882620;29;20030;-66
2021/08/27 02:18:06;;;;;;;20.50;14.00;;;;;;;22.35;100.00;100417.88;4883125;29;20055;-66
2021/08/27 02:20:53;;;;;;;20.42;14.60;;;;;;;22.59;100.00;100416.16;4882592;29;20040;-65
2021/08/27 02:23:41;;;;;;;17.25;13.38;;;;;;;22.51;100.00;100406.00;4882657;29;20379;-66
2021/08/27 02:26:27;;;;;;;18.00;14.05;;;;;;;22.56;100.00;100405.69;4882120;29;20040;-66
2021/08/27 02:29:17;;;;;;;19.30;14.45;;;;;;;22.28;100.00;100408.59;4881957;29;20033;-66
2021/08/27 02:32:07;;;;;;;19.15;14.65;;;;;;;22.07;100.00;100410.91;4881742;29;20378;-65
2021/08/27 02:35:00;;;;;;;17.77;13.88;;;;;;;22.14;100.00;100406.88;4882181;29;20033;-66
2021/08/27 02:37:48;;;;;;;19.65;15.27;;;;;;;21.49;100.00;100414.97;4881765;29;20446;-66
2021/08/27 02:40:34;;;;;;;16.60;14.13;;;;;;;21.56;100.00;100400.28;4869171;29;20390;-67
2021/08/27 02:43:19;;;;;;;18.65;14.55;;;;;;;21.47;100.00;100390.22;4882181;29;20056;-66
2021/08/27 02:46:05;;;;;;;18.88;14.15;;;;;;;21.28;100.00;100403.06;4881959;29;20037;-66
2021/08/27 02:48:51;;;;;;;17.17;13.27;;;;;;;21.55;100.00;100403.91;4881943;29;20112;-65
2021/08/27 02:51:52;;;;;;;18.88;13.98;;;;;;;21.80;100.00;100394.16;4882187;29;20048;-66
2021/08/27 02:54:49;;;;;;;17.73;13.65;;;;;;;21.35;100.00;100410.59;4868400;29;20078;-65
2021/08/27 02:58:04;;;;;;;17.40;14.10;;;;;;;21.79;100.00;100408.44;4881975;29;20446;-65
2021/08/27 03:01:37;;;;;;;17.50;14.05;;;;;;;21.78;100.00;100422.75;4881390;29;20514;-66
2021/08/27 03:04:47;;;;;;;16.67;13.85;;;;;;;21.93;100.00;100419.03;4881368;29;20028;-66
2021/08/27 03:07:37;;;;;;;18.42;13.00;;;;;;;22.03;100.00;100425.44;4881388;29;20128;-66
2021/08/27 03:10:32;;;;;;;18.40;12.70;;;;;;;21.80;100.00;100439.53;4881711;29;20033;-66
2021/08/27 03:13:25;;;;;;;14.07;12.05;;;;;;;21.64;100.00;100441.47;4868200;29;20040;-65
2021/08/27 03:16:15;;;;;;;15.55;11.45;;;;;;;21.74;100.00;100437.25;4881032;29;20454;-66
2021/08/27 03:19:07;;;;;;;18.23;12.95;;;;;;;21.74;100.00;100437.25;4867910;29;20028;-66
2021/08/27 03:22:01;;;;;;;18.98;12.43;;;;;;;21.79;100.00;100445.78;4881237;29;20100;-66
2021/08/27 03:25:06;;;;;;;15.13;12.65;;;;;;;21.56;100.00;100449.13;4880831;29;20048;-66
2021/08/27 03:28:01;;;;;;;17.00;14.00;;;;;;;21.32;100.00;100450.75;4868431;29;20348;-66
2021/08/27 03:30:49;;;;;;;19.52;14.23;;;;;;;21.20;100.00;100445.34;4880855;29;20397;-66
2021/08/27 03:33:36;;;;;;;19.35;13.82;;;;;;;21.43;100.00;100448.25;4881371;29;20061;-66
2021/08/27 03:36:27;;;;;;;19.33;15.00;;;;;;;21.40;100.00;100456.44;4880997;29;20036;-66
2021/08/27 03:39:14;;;;;;;20.10;14.88;;;;;;;21.55;100.00;100467.88;4867626;29;20053;-66
2021/08/27 03:42:01;;;;;;;21.23;15.63;;;;;;;21.40;100.00;100469.75;4881090;29;20033;-66
2021/08/27 03:44:48;;;;;;;20.40;15.00;;;;;;;21.73;100.00;100467.53;4880450;29;20157;-66
2021/08/27 03:47:36;;;;;;;17.42;14.15;;;;;;;21.89;100.00;100459.34;4880949;29;20025;-66
2021/08/27 03:50:23;;;;;;;19.45;14.60;;;;;;;21.51;100.00;100466.38;4880594;29;20047;-66
2021/08/27 03:53:11;;;;;;;17.60;14.20;;;;;;;21.60;100.00;100461.31;4868213;29;20032;-66
2021/08/27 03:55:57;;;;;;;18.05;13.82;;;;;;;21.62;100.00;100470.03;4880476;29;20043;-65
2021/08/27 03:58:44;;;;;;;20.35;13.82;;;;;;;21.41;100.00;100478.59;4880840;29;20124;-65
2021/08/27 04:01:33;;;;;;;19.08;13.73;;;;;;;21.73;100.00;100469.34;4880211;29;20096;-65
2021/08/27 04:04:21;;;;;;;20.65;15.05;;;;;;;21.64;100.00;100462.81;4880430;29;20399;-65
2021/08/27 04:07:06;;;;;;;20.48;15.18;;;;;;;21.60;100.00;100469.28;4880055;29;20466;-65
2021/08/27 04:09:52;;;;;;;17.95;14.20;;;;;;;21.39;100.00;100485.84;4880318;29;20067;-66
2021/08/27 04:12:40;;;;;;;17.27;13.80;;;;;;;21.65;100.00;100488.50;4880619;29;20035;-66
2021/08/27 04:15:25;;;;;;;19.02;14.23;;;;;;;22.03;100.00;100489.47;4880115;29;20060;-64
2021/08/27 04:18:11;;;;;;;18.80;13.73;;;;;;;22.25;100.00;100505.75;4867792;29;20025;-65
2021/08/27 04:20:59;;;;;;;19.17;14.82;;;;;;;22.11;100.00;100511.16;4866907;29;20057;-66
2021/08/27 04:23:45;;;;;;;20.45;15.50;;;;;;;22.14;100.00;100505.63;4879929;29;20059;-66
2021/08/27 04:26:32;;;;;;;21.90;16.67;;;;;;;22.32;100.00;100493.69;4878903;29;20060;-66
2021/08/27 04:29:18;;;;;;;24.85;17.73;;;;;;;22.14;100.00;100497.59;4866220;29;20439;-66
2021/08/27 04:32:04;;;;;;;25.15;17.88;;;;;;;22.55;100.00;100495.63;4878743;29;20037;-65
2021/08/27 04:34:50;;;;;;;25.50;18.27;;;;;;;22.20;100.00;100496.34;4879244;29;20327;-66
2021/08/27 04:37:36;;;;;;;26.45;17.25;;;;;;;22.18;100.00;100503.63;4879191;29;20068;-65
2021/08/27 04:40:23;;;;;;;24.95;17.35;;;;;;;22.44;100.00;100502.66;4879101;29;20033;-66
2021/08/27 04:43:08;;;;;;;30.70;18.92;;;;;;;22.30;100.00;100514.28;4878773;29;20040;-66
2021/08/27 04:45:54;;;;;;;30.67;18.42;;;;;;;22.40;100.00;100514.50;4879726;29;20028;-66
2021/08/27 04:48:40;;;;;;;24.77;17.05;;;;;;;22.82;100.00;100520.41;4866153;29;20048;-66
2021/08/27 04:51:26;;;;;;;24.25;17.13;;;;;;;22.22;100.00;100510.44;4879241;29;20494;-65
2021/08/27 04:54:12;;;;;;;26.15;17.33;;;;;;;22.80;100.00;100506.31;4879297;29;20370;-66
2021/08/27 04:56:57;;;;;;;23.35;15.75;;;;;;;23.00;100.00;100504.88;4878749;29;20033;-65
2021/08/27 04:59:46;;;;;;;25.55;17.63;;;;;;;22.74;100.00;100503.19;4879340;29;20422;-67
2021/08/27 05:02:31;;;;;;;25.05;17.85;;;;;;;22.41;100.00;100495.72;4878497;29;20116;-66
2021/08/27 05:05:17;;;;;;;24.30;18.20;;;;;;;22.86;100.00;100500.53;4878540;29;20065;-67
2021/08/27 05:08:03;;;;;;;23.48;17.13;;;;;;;23.29;100.00;100504.53;4878792;29;20116;-66
2021/08/27 05:10:49;;;;;;;20.63;15.65;;;;;;;23.01;100.00;100507.44;4865659;29;20025;-66
2021/08/27 05:13:35;;;;;;;21.15;15.57;;;;;;;23.19;100.00;100510.63;4878427;29;20047;-66
2021/08/27 05:16:21;;;;;;;21.80;15.50;;;;;;;22.81;100.00;100509.81;4879027;29;20028;-66
2021/08/27 05:19:07;;;;;;;21.27;14.85;;;;;;;22.76;100.00;100507.50;4878550;29;20037;-66
2021/08/27 05:21:53;;;;;;;18.20;14.15;;;;;;;23.07;100.00;100507.00;4879502;29;20493;-67
2021/08/27 05:24:40;;;;;;;21.10;15.10;;;;;;;23.30;100.00;100510.69;4841404;29;1137116;-67
2021/08/27 05:27:26;;;;;;;19.30;14.35;;;;;;;23.28;100.00;100510.81;4880794;29;20041;-67
2021/08/27 05:30:12;;;;;;;19.45;14.63;;;;;;;23.46;100.00;100513.97;4880582;29;20047;-67
2021/08/27 05:32:58;;;;;;;20.40;14.60;;;;;;;23.84;100.00;100503.09;4879798;29;20040;-66
2021/08/27 05:35:44;;;;;;;21.67;14.88;;;;;;;23.94;100.00;100502.31;4879817;29;20494;-67
2021/08/27 05:38:29;;;;;;;27.63;15.77;;;;;;;23.23;100.00;100509.47;4879814;29;20029;-67
2021/08/27 05:41:15;;;;;;;26.00;15.10;;;;;;;22.74;100.00;100493.38;4880486;29;20040;-68
2021/08/27 05:44:01;;;;;;;24.20;14.50;;;;;;;22.98;100.00;100491.63;4883124;29;20029;-67
2021/08/27 05:46:47;;;;;;;24.05;14.70;;;;;;;22.60;100.00;100488.16;4883189;29;20037;-67
2021/08/27 05:49:34;;;;;;;20.83;13.52;;;;;;;23.03;100.00;100485.97;4883089;29;20099;-67
2021/08/27 05:52:19;;;;;;;18.73;14.07;;;;;;;23.29;100.00;100482.25;4883186;29;20077;-67
2021/08/27 05:55:06;;;;;;;18.33;13.35;;;;;;;23.66;100.00;100483.09;4882749;29;20029;-68
2021/08/27 05:57:52;;;;;;;24.08;13.63;;;;;;;23.24;100.00;100489.78;4884144;29;20448;-66
2021/08/27 06:00:38;;;;;;;18.02;13.05;;;;;;;23.34;100.00;100478.28;4883210;29;20037;-68
2021/08/27 06:03:24;;;;;;;19.75;15.00;;;;;;;22.82;100.00;100480.34;4883294;29;20419;-68
2021/08/27 06:06:10;;;;;;;45.33;35.17;;;;;;;23.19;100.00;100481.22;4883359;29;20038;-66
2021/08/27 06:08:55;;;;;;;23.17;13.77;;;;;;;22.56;100.00;100486.69;4882351;29;20459;-66
2021/08/27 06:11:41;;;;;;;17.27;13.55;;;;;;;22.72;100.00;100498.00;4882976;29;20029;-66
2021/08/27 06:14:30;;;;;;;18.95;12.82;;;;;;;22.83;100.00;100492.72;4882406;29;20105;-67
2021/08/27 06:17:16;;;;;;;21.80;12.88;;;;;;;23.00;100.00;100499.53;4882802;29;20041;-66
2021/08/27 06:20:03;;;;;;;19.77;11.90;;;;;;;22.91;100.00;100497.53;4882540;29;20442;-66
2021/08/27 06:22:49;;;;;;;22.20;11.77;;;;;;;23.59;100.00;100492.53;4883323;29;20033;-67
2021/08/27 06:25:35;;;;;;;15.55;11.65;;;;;;;23.78;100.00;100492.88;4868857;29;20107;-66
2021/08/27 06:28:21;;;;;;;15.63;12.18;;;;;;;23.82;100.00;100495.19;4882394;29;20044;-66
2021/08/27 06:31:07;;;;;;;18.95;12.35;;;;;;;23.72;100.00;100491.50;4882606;29;20029;-68
2021/08/27 06:33:53;;;;;;;16.10;12.30;;;;;;;24.05;100.00;100498.81;4868796;29;20110;-67
2021/08/27 06:36:39;;;;;;;19.33;13.23;;;;;;;23.97;100.00;100519.97;4882058;29;20040;-69
2021/08/27 06:39:26;;;;;;;25.40;13.30;;;;;;;23.53;100.00;100525.94;4883217;29;20025;-68
2021/08/27 06:42:11;;;;;;;24.08;13.43;;;;;;;23.26;100.00;100531.47;4882965;29;20068;-67
2021/08/27 06:47:28;;;;;;;25.77;13.60;;;;;;;23.67;100.00;100540.97;4907796;23;20057;-66
2021/08/27 06:50:14;;;;;;;16.02;13.23;;;;;;;23.89;100.00;100547.28;4901531;29;20033;-66
2021/08/27 06:53:00;;;;;;;17.60;12.45;;;;;;;23.79;100.00;100546.25;4901440;29;20426;-66
2021/08/27 06:55:45;;;;;;;18.80;12.43;;;;;;;23.48;100.00;100553.00;4895104;29;20025;-66
2021/08/27 06:58:32;;;;;;;19.85;11.63;;;;;;;23.44;100.00;100554.19;4882024;29;20071;-67
2021/08/27 07:01:18;;;;;;;21.77;12.00;;;;;;;24.06;100.00;100570.16;4882464;29;20363;-67
2021/08/27 07:04:03;;;;;;;24.00;13.02;;;;;;;24.02;100.00;100566.81;4882102;29;20029;-68
2021/08/27 07:06:49;;;;;;;20.00;13.07;;;;;;;24.00;100.00;100563.44;4881843;29;20021;-68
2021/08/27 07:09:35;;;;;;;24.80;13.13;;;;;;;24.12;100.00;100558.97;4881215;29;20028;-68
2021/08/27 07:12:21;;;;;;;17.58;12.73;;;;;;;24.70;100.00;100551.72;4881850;29;20029;-68
2021/08/27 07:15:08;;;;;;;21.42;13.35;;;;;;;24.53;100.00;100545.94;4881071;29;20455;-67
2021/08/27 07:17:54;;;;;;;25.20;15.27;;;;;;;24.58;100.00;100541.91;4881607;29;20127;-67
2021/08/27 07:20:40;;;;;;;26.90;15.07;;;;;;;25.04;100.00;100545.38;4880977;29;20029;-67
2021/08/27 07:23:26;;;;;;;24.40;14.90;;;;;;;24.74;100.00;100544.28;4881499;29;20057;-67
2021/08/27 07:26:11;;;;;;;21.15;14.93;;;;;;;24.31;100.00;100545.88;4880881;29;20025;-68
2021/08/27 07:28:57;;;;;;;23.13;15.40;;;;;;;24.27;100.00;100549.78;4881643;29;20025;-66
2021/08/27 07:31:43;;;;;;;19.05;13.70;;;;;;;25.05;100.00;100547.13;4867504;29;20090;-66
2021/08/27 07:34:29;;;;;;;20.48;14.75;;;;;;;24.69;100.00;100543.78;4880860;29;20033;-66
2021/08/27 07:37:14;;;;;;;20.40;13.52;;;;;;;25.42;100.00;100550.38;4880695;29;20356;-66
2021/08/27 07:40:00;;;;;;;17.38;13.43;;;;;;;25.60;100.00;100560.47;4881160;29;20496;-67
2021/08/27 07:42:46;;;;;;;18.40;13.93;;;;;;;25.25;100.00;100566.97;4880789;29;20129;-65
2021/08/27 07:45:32;;;;;;;17.60;13.48;;;;;;;26.09;100.00;100578.78;4880527;29;20056;-65
2021/08/27 07:48:18;;;;;;;19.05;14.15;;;;;;;25.94;100.00;100578.22;4881473;29;20033;-66
2021/08/27 07:51:04;;;;;;;17.20;13.68;;;;;;;25.94;100.00;100574.69;4880251;29;20204;-66
2021/08/27 07:53:50;;;;;;;16.60;12.68;;;;;;;25.95;100.00;100554.91;4880362;29;20053;-66
2021/08/27 07:56:35;;;;;;;17.80;13.25;;;;;;;26.63;100.00;100549.94;4880294;29;20355;-66
2021/08/27 07:59:22;;;;;;;16.33;13.10;;;;;;;26.71;100.00;100550.13;4880646;29;20104;-65
2021/08/27 08:02:08;;;;;;;17.92;13.52;;;;;;;27.11;100.00;100553.72;4880196;29;20473;-66
2021/08/27 08:04:54;;;;;;;17.50;13.00;;;;;;;27.32;100.00;100551.84;4880048;29;20496;-66
2021/08/27 08:07:39;;;;;;;17.35;13.75;;;;;;;27.42;100.00;100541.97;4880690;29;20351;-66
2021/08/27 08:10:25;;;;;;;19.45;14.85;;;;;;;27.69;100.00;100535.94;4880741;29;20049;-66
2021/08/27 08:13:11;;;;;;;16.88;12.68;;;;;;;28.34;100.00;100542.38;4881134;29;20032;-66
2021/08/27 08:15:59;;;;;;;16.67;13.50;;;;;;;28.56;100.00;100547.47;4880672;29;20116;-65
2021/08/27 08:18:45;;;;;;;16.33;13.15;;;;;;;28.49;100.00;100542.81;4880856;29;20048;-66
2021/08/27 08:21:31;;;;;;;18.67;12.70;;;;;;;28.11;100.00;100545.47;4881008;29;20120;-66
2021/08/27 08:24:16;;;;;;;22.00;15.18;;;;;;;28.70;100.00;100541.63;4880664;29;20021;-66
2021/08/27 08:27:02;;;;;;;17.77;13.75;;;;;;;28.37;100.00;100542.06;4880292;29;20029;-67
2021/08/27 08:29:48;;;;;;;16.77;11.38;;;;;;;28.31;100.00;100541.78;4867346;29;20407;-66
2021/08/27 08:32:34;;;;;;;15.25;10.80;;;;;;;28.98;96.68;100537.97;4879806;29;20044;-66
2021/08/27 08:35:20;;;;;;;11.35;10.15;;;;;;;28.64;97.27;100526.00;4880143;29;20056;-66
2021/08/27 08:38:06;;;;;;;12.60;11.15;;;;;;;29.04;94.62;100528.44;4879901;29;20446;-66
2021/08/27 08:40:51;;;;;;;13.63;10.90;;;;;;;29.43;92.05;100520.03;4867180;29;20494;-67
2021/08/27 08:43:38;;;;;;;14.13;10.40;;;;;;;29.38;91.66;100518.78;4880390;29;20029;-66
2021/08/27 08:46:23;;;;;;;13.30;10.57;;;;;;;29.75;87.69;100525.81;4880002;29;20053;-66
2021/08/27 08:49:11;;;;;;;12.40;10.15;;;;;;;28.64;94.16;100519.78;4880433;29;20048;-67
2021/08/27 08:51:58;;;;;;;11.48;9.80;;;;;;;29.57;88.23;100524.91;4880175;29;20107;-66
2021/08/27 08:54:48;;;;;;;12.55;10.77;;;;;;;29.23;90.99;100521.13;4881886;29;20037;-66
2021/08/27 08:57:33;;;;;;;12.77;10.85;;;;;;;29.63;91.47;100527.03;4880462;29;20040;-67
2021/08/27 09:00:19;;;;;;;13.60;10.77;;;;;;;29.77;89.98;100531.06;4880355;29;20103;-67
2021/08/27 09:03:06;;;;;;;12.65;10.80;;;;;;;30.23;84.51;100525.44;4879759;29;20108;-67
2021/08/27 09:05:52;;;;;;;15.45;12.55;;;;;;;30.08;91.10;100517.00;4880221;29;20370;-66
2021/08/27 09:08:44;;;;;;;15.82;11.25;;;;;;;30.21;87.01;100514.78;4880223;29;20032;-66
2021/08/27 09:11:31;;;;;;;13.10;11.63;;;;;;;30.14;84.97;100519.09;4880294;29;20033;-66
2021/08/27 09:14:16;;;;;;;12.07;10.77;;;;;;;30.45;84.02;100522.22;4881093;29;20131;-66
2021/08/27 09:17:06;;;;;;;13.13;11.25;;;;;;;30.21;86.83;100514.78;4867239;29;20542;-67
2021/08/27 09:19:53;;;;;;;15.70;11.43;;;;;;;30.30;87.09;100502.19;4883272;29;20036;-67
2021/08/27 09:22:54;;;;;;;15.70;12.63;;;;;;;30.75;86.12;100502.84;4884099;29;20025;-66
2021/08/27 09:25:41;;;;;;;14.27;11.25;;;;;;;30.68;80.84;100501.75;4882973;29;20112;-67
2021/08/27 09:28:27;;;;;;;12.10;10.80;;;;;;;30.13;88.14;100500.28;4883168;29;20036;-65
2021/08/27 09:31:13;;;;;;;13.07;11.38;;;;;;;29.77;87.88;100501.34;4883140;29;20042;-67
2021/08/27 09:33:59;;;;;;;14.02;12.00;;;;;;;30.22;87.85;100497.53;4869883;29;20058;-67
2021/08/27 09:36:56;;;;;;;13.13;11.48;;;;;;;29.98;88.57;100493.78;4883389;29;20121;-67
2021/08/27 09:39:42;;;;;;;16.13;11.32;;;;;;;29.81;91.07;100481.97;4883211;29;20033;-67
2021/08/27 09:42:36;;;;;;;12.93;11.38;;;;;;;29.71;90.00;100485.75;4883016;29;20182;-66
2021/08/27 09:45:39;;;;;;;19.08;11.82;;;;;;;30.01;90.38;100474.56;4869309;29;20025;-66
2021/08/27 09:48:25;;;;;;;13.20;11.77;;;;;;;30.26;87.86;100469.19;4883975;29;20048;-66
2021/08/27 09:51:11;;;;;;;13.32;10.93;;;;;;;30.54;86.09;100465.31;4882773;29;20370;-68
2021/08/27 09:53:56;;;;;;;11.93;10.73;;;;;;;30.54;83.19;100464.50;4883387;29;20033;-69
2021/08/27 09:56:48;;;;;;;12.57;10.85;;;;;;;30.39;84.93;100472.34;4882556;29;20036;-68
2021/08/27 09:59:47;;;;;;;12.32;11.13;;;;;;;29.99;86.58;100480.09;4883314;29;20039;-69
2021/08/27 10:02:32;;;;;;;18.40;11.35;;;;;;;29.71;87.80;100473.09;4882904;29;20370;-66
2021/08/27 10:05:36;;;;;;;11.93;10.68;;;;;;;29.58;88.82;100469.91;4882748;29;20136;-67
2021/08/27 10:08:33;;;;;;;12.73;11.43;;;;;;;30.15;86.67;100455.94;4869325;29;20029;-68
2021/08/27 10:11:23;;;;;;;12.20;10.95;;;;;;;30.35;83.74;100467.41;4869579;29;20033;-67
2021/08/27 10:14:11;;;;;;;13.85;11.80;;;;;;;30.26;83.91;100463.78;4882723;29;20135;-68
2021/08/27 10:17:01;;;;;;;15.20;11.85;;;;;;;30.42;81.25;100465.75;4882681;29;20037;-69
2021/08/27 10:19:47;;;;;;;15.85;12.30;;;;;;;30.28;84.87;100456.38;4882241;29;20055;-68
2021/08/27 10:22:41;;;;;;;13.93;11.07;;;;;;;30.49;82.61;100459.56;4882511;29;20454;-67
2021/08/27 10:25:28;;;;;;;13.48;10.75;;;;;;;30.71;80.36;100456.34;4882496;29;20037;-66
2021/08/27 10:28:17;;;;;;;11.25;10.15;;;;;;;30.72;80.08;100458.03;4881364;29;20072;-67
2021/08/27 10:31:04;;;;;;;11.85;10.40;;;;;;;30.95;78.81;100456.44;4869296;29;20043;-66
2021/08/27 10:33:53;;;;;;;11.23;10.13;;;;;;;30.71;77.70;100453.63;4881970;29;20048;-66
2021/08/27 10:36:40;;;;;;;17.23;10.60;;;;;;;31.03;77.46;100455.63;4868677;29;20173;-67
2021/08/27 10:39:35;;;;;;;13.13;9.63;;;;;;;30.75;77.14;100455.00;4868782;29;20535;-67
2021/08/27 10:42:47;;;;;;;12.00;9.88;;;;;;;30.85;77.83;100458.44;4882098;29;20092;-67
2021/08/27 10:45:33;;;;;;;11.60;9.85;;;;;;;30.54;77.27;100453.66;4882469;29;20368;-67
2021/08/27 10:48:24;;;;;;;11.27;8.98;;;;;;;31.03;74.41;100452.94;4868889;29;20029;-68
2021/08/27 10:51:30;;;;;;;9.07;7.82;;;;;;;30.99;72.88;100452.38;4882312;29;20427;-69
2021/08/27 10:54:17;;;;;;;9.27;8.35;;;;;;;31.31;71.56;100452.53;4882214;29;20336;-68
2021/08/27 10:57:03;;;;;;;16.20;8.45;;;;;;;31.65;69.72;100443.47;4868759;29;20088;-68
2021/08/27 10:59:59;;;;;;;17.30;8.50;;;;;;;31.90;69.29;100447.91;4881667;29;20021;-66
2021/08/27 11:02:52;;;;;;;18.17;9.25;;;;;;;31.67;69.16;100446.84;4881234;29;20063;-67
2021/08/27 11:05:44;;;;;;;9.18;8.07;;;;;;;31.95;66.99;100445.53;4869382;29;20036;-67
2021/08/27 11:08:34;;;;;;;10.98;7.63;;;;;;;31.16;66.96;100440.63;4881259;29;20447;-67
2021/08/27 11:11:22;;;;;;;9.73;7.82;;;;;;;31.60;67.59;100424.13;4881372;29;20443;-67
2021/08/27 11:14:21;;;;;;;11.70;7.18;;;;;;;31.78;65.26;100433.00;4867983;29;20033;-67
2021/08/27 11:17:08;;;;;;;8.88;6.68;;;;;;;31.68;65.22;100429.56;4881335;29;20025;-67
2021/08/27 11:19:57;;;;;;;7.93;6.80;;;;;;;31.66;64.78;100426.19;4881777;29;20044;-66
2021/08/27 11:22:55;;;;;;;9.00;7.00;;;;;;;31.24;65.03;100435.28;4881351;29;20033;-68
2021/08/27 11:25:58;;;;;;;10.10;6.45;;;;;;;31.53;63.12;100444.81;4882612;29;20032;-67
2021/08/27 11:28:44;;;;;;;9.00;6.25;;;;;;;31.03;65.80;100447.50;4868589;29;20036;-68
2021/08/27 11:31:40;;;;;;;10.93;6.28;;;;;;;31.55;62.36;100440.06;4869099;29;20032;-67
2021/08/27 11:34:55;;;;;;;9.70;6.07;;;;;;;32.38;58.36;100437.88;4881111;29;20086;-67
2021/08/27 11:37:41;;;;;;;13.70;6.13;;;;;;;31.75;56.54;100436.88;4882565;29;20028;-67
2021/08/27 11:40:28;;;;;;;7.65;5.70;;;;;;;32.01;57.27;100439.44;4882303;29;20069;-67
2021/08/27 11:43:14;;;;;;;7.57;5.00;;;;;;;32.52;54.06;100436.34;4880768;29;20120;-67
2021/08/27 11:46:00;;;;;;;6.05;4.85;;;;;;;31.87;54.22;100434.69;4882056;29;20127;-67
2021/08/27 11:48:51;;;;;;;7.25;4.70;;;;;;;32.12;52.30;100426.38;4882037;29;20032;-67
2021/08/27 11:51:44;;;;;;;6.30;4.80;;;;;;;32.45;51.68;100430.75;4881265;29;20112;-67
2021/08/27 11:54:30;;;;;;;10.98;4.95;;;;;;;32.71;50.62;100425.09;4882592;29;20029;-67
2021/08/27 11:57:17;;;;;;;6.68;5.05;;;;;;;31.77;52.33;100425.91;4880515;29;20035;-67
2021/08/27 12:00:04;;;;;;;6.97;5.45;;;;;;;32.83;50.42;100415.56;4868923;29;20028;-67
2021/08/27 12:02:56;;;;;;;8.07;5.72;;;;;;;32.89;49.77;100410.28;4880866;29;20455;-67
2021/08/27 12:05:42;;;;;;;9.93;5.30;;;;;;;32.40;51.62;100419.59;4880761;29;20020;-67
2021/08/27 12:08:28;;;;;;;7.47;5.03;;;;;;;32.48;52.23;100416.00;4881554;29;20403;-67
2021/08/27 12:11:32;;;;;;;6.70;5.25;;;;;;;33.08;51.16;100414.44;4880809;29;20032;-67
2021/08/27 12:14:18;;;;;;;7.50;5.63;;;;;;;32.80;51.95;100407.75;4880361;29;20047;-67
2021/08/27 12:17:04;;;;;;;7.85;5.97;;;;;;;32.53;52.72;100413.59;4880532;29;20496;-67
2021/08/27 12:19:52;;;;;;;7.05;5.70;;;;;;;31.57;55.42;100406.38;4868720;29;20098;-67
2021/08/27 12:22:44;;;;;;;6.90;6.20;;;;;;;32.04;55.87;100406.56;4880572;29;20111;-66
2021/08/27 12:25:32;;;;;;;9.90;6.38;;;;;;;31.91;56.19;100406.25;4882111;29;20089;-66
2021/08/27 12:28:18;;;;;;;9.05;6.63;;;;;;;32.61;55.18;100400.88;4868537;29;20120;-67
2021/08/27 12:31:06;;;;;;;7.45;6.50;;;;;;;32.48;55.71;100406.00;4880385;29;20084;-66
2021/08/27 12:33:52;;;;;;;11.73;6.65;;;;;;;32.99;54.87;100407.34;4881472;29;20059;-67
2021/08/27 12:36:40;;;;;;;7.90;7.10;;;;;;;32.66;55.45;100400.34;4880602;29;20324;-68
2021/08/27 12:39:26;;;;;;;10.98;7.88;;;;;;;32.82;54.58;100400.31;4881866;29;20036;-69
2021/08/27 12:42:14;;;;;;;12.23;8.48;;;;;;;32.72;55.77;100394.22;4868636;29;20033;-68
2021/08/27 12:45:10;;;;;;;8.43;7.25;;;;;;;32.84;54.67;100395.53;4879731;29;20036;-68
2021/08/27 12:48:05;;;;;;;8.55;7.07;;;;;;;32.19;55.96;100392.16;4880786;29;20143;-67